createdAt,value
2022-11-28T00:01:43.745Z,27.15
2022-11-28T00:06:49.460Z,25.65
2022-11-28T00:11:52.897Z,25.05
2022-11-28T00:16:57.568Z,32.88
2022-11-28T00:27:04.011Z,29.80
2022-11-28T00:32:08.609Z,29.52
2022-11-28T00:37:12.024Z,29.88
2022-11-28T00:42:16.653Z,25.10
2022-11-28T00:47:21.328Z,30.00
2022-11-28T00:52:24.615Z,23.75
2022-11-28T00:57:28.021Z,27.90
2022-11-28T01:02:32.780Z,30.92
2022-11-28T01:12:39.287Z,30.23
2022-11-28T01:17:43.969Z,31.40
2022-11-28T01:27:50.226Z,26.17
2022-11-28T01:32:54.732Z,22.67
2022-11-28T01:37:57.890Z,27.83
2022-11-28T01:43:01.247Z,25.90
2022-11-28T01:48:06.343Z,21.45
2022-11-28T01:53:11.545Z,22.33
2022-11-28T01:58:15.159Z,22.48
2022-11-28T02:03:24.616Z,24.08
2022-11-28T02:08:28.043Z,21.52
2022-11-28T02:13:42.035Z,22.58
2022-11-28T02:19:29.888Z,21.13
2022-11-28T02:24:55.336Z,22.73
2022-11-28T02:30:20.139Z,20.85
2022-11-28T02:35:30.331Z,21.55
2022-11-28T02:40:39.948Z,21.10
2022-11-28T02:45:51.956Z,22.77
2022-11-28T02:51:02.710Z,20.42
2022-11-28T02:56:06.775Z,19.15
2022-11-28T03:01:17.411Z,18.88
2022-11-28T03:06:33.853Z,15.13
2022-11-28T03:11:48.972Z,19.50
2022-11-28T03:22:11.633Z,20.20
2022-11-28T03:27:20.387Z,18.85
2022-11-28T03:32:27.959Z,18.63
2022-11-28T03:37:36.939Z,18.80
2022-11-28T03:42:43.740Z,21.80
2022-11-28T03:47:52.370Z,19.17
2022-11-28T03:53:03.157Z,17.05
2022-11-28T03:58:13.227Z,16.67
2022-11-28T04:03:27.880Z,17.23
2022-11-28T04:08:37.933Z,17.25
2022-11-28T04:13:47.025Z,16.10
2022-11-28T04:18:56.780Z,15.35
2022-11-28T04:24:05.018Z,17.63
2022-11-28T04:29:11.304Z,16.45
2022-11-28T04:34:18.601Z,14.93
2022-11-28T04:39:26.537Z,16.27
2022-11-28T04:44:35.284Z,22.67
2022-11-28T04:49:39.269Z,16.97
2022-11-28T04:54:52.918Z,17.92
2022-11-28T04:59:57.779Z,19.17
2022-11-28T05:05:01.235Z,21.37
2022-11-28T05:10:06.789Z,19.50
2022-11-28T05:15:11.380Z,19.60
2022-11-28T05:20:14.758Z,19.00
2022-11-28T05:25:19.341Z,21.38
2022-11-28T05:35:25.826Z,19.77
2022-11-28T05:40:30.539Z,18.95
2022-11-28T05:50:39.895Z,16.92
2022-11-28T05:55:45.406Z,22.27
2022-11-28T06:00:48.725Z,21.55
2022-11-28T06:05:52.689Z,18.48
2022-11-28T06:10:59.341Z,22.52
2022-11-28T06:16:02.536Z,25.80
2022-11-28T06:21:07.955Z,18.70
2022-11-28T06:26:15.090Z,24.08
2022-11-28T06:31:20.608Z,20.35
2022-11-28T06:36:23.862Z,20.33
2022-11-28T06:41:28.462Z,20.38
2022-11-28T06:46:34.581Z,23.85
2022-11-28T06:51:37.904Z,19.95
2022-11-28T06:56:43.460Z,20.15
2022-11-28T07:01:46.776Z,22.55
2022-11-28T07:06:50.294Z,22.58
2022-11-28T07:11:55.053Z,21.05
2022-11-28T07:17:00.084Z,23.98
2022-11-28T07:22:03.534Z,23.33
2022-11-28T07:27:08.132Z,23.58
2022-11-28T07:32:11.625Z,21.50
2022-11-28T07:37:16.263Z,25.38
2022-11-28T07:42:20.896Z,25.50
2022-11-28T07:47:24.630Z,25.92
2022-11-28T07:52:27.919Z,23.42
2022-11-28T07:57:32.656Z,24.95
2022-11-28T08:07:39.619Z,22.85
2022-11-28T08:12:44.720Z,24.33
2022-11-28T08:17:47.891Z,23.17
2022-11-28T08:22:51.637Z,27.88
2022-11-28T08:27:56.217Z,23.80
2022-11-28T08:32:59.553Z,22.67
2022-11-28T08:38:02.680Z,20.30
2022-11-28T08:43:08.249Z,24.13
2022-11-28T08:48:11.588Z,26.40
2022-11-28T08:53:18.511Z,21.08
2022-11-28T08:58:23.499Z,24.55
2022-11-28T09:08:30.102Z,16.38
2022-11-28T09:13:34.802Z,19.95
2022-11-28T09:18:38.268Z,17.42
2022-11-28T09:23:44.044Z,14.75
2022-11-28T09:28:49.297Z,16.77
2022-11-28T09:33:52.798Z,16.95
2022-11-28T09:38:56.092Z,21.55
2022-11-28T09:44:07.550Z,17.95
2022-11-28T09:49:40.272Z,17.17
2022-11-28T09:54:48.376Z,15.82
2022-11-28T09:59:53.102Z,17.50
2022-11-28T10:05:07.308Z,12.05
2022-11-28T10:10:24.265Z,16.15
2022-11-28T10:15:40.369Z,12.75
2022-11-28T10:20:45.931Z,15.50
2022-11-28T10:25:55.372Z,14.40
2022-11-28T10:31:05.750Z,18.55
2022-11-28T10:36:17.725Z,17.17
2022-11-28T10:41:28.996Z,16.17
2022-11-28T10:47:01.932Z,16.33
2022-11-28T10:52:14.080Z,21.25
2022-11-28T10:57:22.750Z,18.42
2022-11-28T11:02:37.694Z,16.88
2022-11-28T11:12:46.338Z,18.37
2022-11-28T11:17:52.013Z,23.05
2022-11-28T11:22:57.060Z,19.63
2022-11-28T11:28:02.738Z,16.63
2022-11-28T11:33:13.965Z,17.55
2022-11-28T11:38:19.870Z,18.60
2022-11-28T11:43:27.773Z,21.27
2022-11-28T11:48:38.291Z,18.30
2022-11-28T11:53:41.892Z,18.40
2022-11-28T11:58:50.419Z,17.63
2022-11-28T12:04:08.393Z,18.60
2022-11-28T12:09:24.573Z,17.10
2022-11-28T12:14:31.656Z,17.45
2022-11-28T12:19:45.996Z,16.02
2022-11-28T12:25:02.983Z,19.55
2022-11-28T12:30:25.256Z,16.85
2022-11-28T12:35:39.751Z,16.92
2022-11-28T12:40:55.407Z,17.52
2022-11-28T12:46:07.146Z,15.18
2022-11-28T12:51:23.474Z,15.57
2022-11-28T12:56:38.650Z,15.47
2022-11-28T13:01:56.429Z,17.45
2022-11-28T13:07:12.680Z,18.77
2022-11-28T13:12:22.939Z,14.43
2022-11-28T13:17:39.831Z,15.37
2022-11-28T13:22:54.482Z,16.58
2022-11-28T13:28:07.342Z,15.63
2022-11-28T13:33:44.884Z,11.95
2022-11-28T13:39:11.817Z,14.95
2022-11-28T13:44:22.242Z,13.40
2022-11-28T13:49:29.700Z,16.88
2022-11-28T13:54:46.490Z,15.50
2022-11-28T13:59:58.233Z,17.35
2022-11-28T14:05:02.036Z,16.65
2022-11-28T14:10:50.972Z,12.02
2022-11-28T14:16:07.782Z,17.42
2022-11-28T14:21:20.176Z,16.17
2022-11-28T14:26:31.653Z,15.65
2022-11-28T14:31:38.396Z,16.58
2022-11-28T14:36:42.941Z,17.73
2022-11-28T14:48:16.344Z,14.97
2022-11-28T14:53:44.679Z,16.45
2022-11-28T14:58:50.585Z,16.63
2022-11-28T15:04:01.237Z,17.88
2022-11-28T15:09:08.908Z,20.42
2022-11-28T15:14:21.096Z,20.60
2022-11-28T15:19:29.314Z,17.98
2022-11-28T15:24:35.254Z,18.80
2022-11-28T15:29:39.957Z,17.47
2022-11-28T15:39:49.263Z,18.53
2022-11-28T15:44:59.914Z,20.10
2022-11-28T15:50:06.790Z,17.63
2022-11-28T15:55:16.977Z,23.87
2022-11-28T16:00:24.427Z,21.30
2022-11-28T16:05:29.359Z,21.52
2022-11-28T16:10:37.825Z,22.60
2022-11-28T16:15:50.147Z,21.50
2022-11-28T16:20:54.319Z,20.48
2022-11-28T16:26:03.452Z,20.33
2022-11-28T16:31:14.276Z,20.93
2022-11-28T16:36:22.903Z,22.60
2022-11-28T16:41:30.709Z,19.93
2022-11-28T16:46:40.109Z,18.53
2022-11-28T16:51:43.409Z,23.40
2022-11-28T16:56:46.734Z,16.93
2022-11-28T17:01:54.965Z,13.60
2022-11-28T17:07:04.480Z,15.30
2022-11-28T17:12:12.420Z,14.35
2022-11-28T17:17:19.179Z,17.90
2022-11-28T17:22:26.561Z,17.57
2022-11-28T17:27:30.464Z,20.53
2022-11-28T17:32:35.295Z,19.40
2022-11-28T17:37:40.997Z,17.73
2022-11-28T17:42:44.543Z,19.77
2022-11-28T17:47:49.643Z,21.37
2022-11-28T17:52:53.129Z,17.60
2022-11-28T17:57:56.918Z,18.43
2022-11-28T18:03:02.669Z,15.57
2022-11-28T18:08:08.003Z,17.57
2022-11-28T18:13:11.761Z,19.80
2022-11-28T18:18:16.567Z,17.57
2022-11-28T18:28:23.528Z,10.17
2022-11-28T18:33:28.323Z,15.83
2022-11-28T18:38:32.231Z,15.73
2022-11-28T18:43:37.075Z,16.07
2022-11-28T18:53:46.254Z,13.30
2022-11-28T18:58:52.655Z,14.68
2022-11-28T19:04:03.494Z,15.47
2022-11-28T19:09:09.627Z,16.30
2022-11-28T19:14:16.566Z,14.83
2022-11-28T19:19:21.147Z,15.70
2022-11-28T19:29:27.741Z,13.07
2022-11-28T19:34:33.017Z,13.37
2022-11-28T19:39:37.644Z,15.10
2022-11-28T19:44:41.096Z,13.20
2022-11-28T19:49:46.078Z,12.97
2022-11-28T19:54:49.887Z,15.20
2022-11-28T19:59:54.481Z,13.63
2022-11-28T20:04:59.022Z,15.68
2022-11-28T20:15:24.504Z,15.17
2022-11-28T20:20:29.384Z,14.80
2022-11-28T20:30:37.352Z,14.80
2022-11-28T20:35:42.059Z,13.33
2022-11-28T20:45:48.438Z,15.97
2022-11-28T20:50:53.029Z,14.83
2022-11-28T20:56:03.205Z,13.43
2022-11-28T21:01:07.140Z,13.57
2022-11-28T21:06:12.572Z,13.25
2022-11-28T21:11:36.642Z,12.87
2022-11-28T21:21:45.117Z,13.97
2022-11-28T21:26:53.565Z,14.73
2022-11-28T21:31:57.774Z,12.45
2022-11-28T21:37:03.040Z,13.38
2022-11-28T21:42:06.389Z,14.73
2022-11-28T21:47:09.870Z,16.40
2022-11-28T21:52:16.080Z,17.50
2022-11-28T21:57:19.438Z,14.85
2022-11-28T22:02:27.658Z,17.30
2022-11-28T22:07:36.654Z,17.17
2022-11-28T22:12:40.040Z,18.60
2022-11-28T22:17:43.429Z,16.83
2022-11-28T22:22:49.479Z,19.95
2022-11-28T22:27:52.648Z,19.42
2022-11-28T22:32:56.149Z,19.08
2022-11-28T22:38:00.686Z,19.48
2022-11-28T22:43:04.017Z,19.77
2022-11-28T22:48:07.857Z,20.15
2022-11-28T22:53:12.417Z,21.60
2022-11-28T22:58:15.735Z,16.73
2022-11-28T23:03:18.985Z,18.20
2022-11-28T23:08:23.730Z,19.00
2022-11-28T23:18:30.110Z,17.75
2022-11-28T23:23:35.118Z,18.27
2022-11-28T23:28:39.744Z,17.17
2022-11-28T23:33:43.953Z,19.25
2022-11-28T23:38:50.567Z,14.25
2022-11-28T23:43:54.171Z,16.50
2022-11-28T23:48:57.855Z,15.03
2022-11-28T23:54:02.457Z,15.70
2022-11-28T23:59:24.652Z,15.83
